sensor_id;sensor_type;location;lat;lon;timestamp;temperature;humidity
28747;DHT22;15903;49.008;8.394;2023-03-05T00:01:22;6.10;99.90
28747;DHT22;15903;49.008;8.394;2023-03-05T00:03:49;6.10;99.90
28747;DHT22;15903;49.008;8.394;2023-03-05T00:06:17;6.10;99.90
28747;DHT22;15903;49.008;8.394;2023-03-05T00:08:43;6.10;99.90
28747;DHT22;15903;49.008;8.394;2023-03-05T00:11:10;6.10;99.90
28747;DHT22;15903;49.008;8.394;2023-03-05T00:13:36;6.10;99.90
28747;DHT22;15903;49.008;8.394;2023-03-05T00:16:07;6.00;99.90
28747;DHT22;15903;49.008;8.394;2023-03-05T00:18:33;6.00;99.90
28747;DHT22;15903;49.008;8.394;2023-03-05T00:20:59;6.10;99.90
28747;DHT22;15903;49.008;8.394;2023-03-05T00:23:25;6.10;99.90
28747;DHT22;15903;49.008;8.394;2023-03-05T00:25:51;6.10;99.90
28747;DHT22;15903;49.008;8.394;2023-03-05T00:28:16;6.10;99.90
28747;DHT22;15903;49.008;8.394;2023-03-05T00:30:42;6.10;99.90
28747;DHT22;15903;49.008;8.394;2023-03-05T00:33:08;6.10;99.90
28747;DHT22;15903;49.008;8.394;2023-03-05T00:35:43;6.10;99.90
28747;DHT22;15903;49.008;8.394;2023-03-05T00:38:10;6.10;99.90
28747;DHT22;15903;49.008;8.394;2023-03-05T00:40:40;6.10;99.90
28747;DHT22;15903;49.008;8.394;2023-03-05T00:43:06;6.10;99.90
28747;DHT22;15903;49.008;8.394;2023-03-05T00:45:32;6.10;99.90
28747;DHT22;15903;49.008;8.394;2023-03-05T00:47:58;6.10;99.90
28747;DHT22;15903;49.008;8.394;2023-03-05T00:50:25;6.10;99.90
28747;DHT22;15903;49.008;8.394;2023-03-05T00:52:51;6.10;99.90
28747;DHT22;15903;49.008;8.394;2023-03-05T00:55:17;6.10;99.90
28747;DHT22;15903;49.008;8.394;2023-03-05T00:57:42;6.10;99.90
28747;DHT22;15903;49.008;8.394;2023-03-05T01:00:09;6.10;99.90
28747;DHT22;15903;49.008;8.394;2023-03-05T01:02:35;6.20;99.90
28747;DHT22;15903;49.008;8.394;2023-03-05T01:05:01;6.20;99.90
28747;DHT22;15903;49.008;8.394;2023-03-05T01:07:27;6.20;99.90
28747;DHT22;15903;49.008;8.394;2023-03-05T01:09:52;6.20;99.90
28747;DHT22;15903;49.008;8.394;2023-03-05T01:12:18;6.20;99.90
28747;DHT22;15903;49.008;8.394;2023-03-05T01:14:43;6.20;99.90
28747;DHT22;15903;49.008;8.394;2023-03-05T01:17:09;6.20;99.90
28747;DHT22;15903;49.008;8.394;2023-03-05T01:19:34;6.20;99.90
28747;DHT22;15903;49.008;8.394;2023-03-05T01:22:00;6.20;99.90
28747;DHT22;15903;49.008;8.394;2023-03-05T01:24:25;6.10;99.90
28747;DHT22;15903;49.008;8.394;2023-03-05T01:26:51;6.10;99.90
28747;DHT22;15903;49.008;8.394;2023-03-05T01:29:17;6.10;99.90
28747;DHT22;15903;49.008;8.394;2023-03-05T01:31:42;6.10;99.90
28747;DHT22;15903;49.008;8.394;2023-03-05T01:34:08;6.10;99.90
28747;DHT22;15903;49.008;8.394;2023-03-05T01:36:34;6.10;99.90
28747;DHT22;15903;49.008;8.394;2023-03-05T01:39:00;6.10;99.90
28747;DHT22;15903;49.008;8.394;2023-03-05T01:41:25;6.20;99.90
28747;DHT22;15903;49.008;8.394;2023-03-05T01:43:51;6.10;99.90
28747;DHT22;15903;49.008;8.394;2023-03-05T01:46:34;6.10;99.90
28747;DHT22;15903;49.008;8.394;2023-03-05T01:49:04;6.20;99.90
28747;DHT22;15903;49.008;8.394;2023-03-05T01:51:36;6.20;99.90
28747;DHT22;15903;49.008;8.394;2023-03-05T01:54:03;6.20;99.90
28747;DHT22;15903;49.008;8.394;2023-03-05T01:56:30;6.20;99.90
28747;DHT22;15903;49.008;8.394;2023-03-05T01:58:56;6.20;99.90
28747;DHT22;15903;49.008;8.394;2023-03-05T02:01:32;6.10;99.90
28747;DHT22;15903;49.008;8.394;2023-03-05T02:03:59;6.10;99.90
28747;DHT22;15903;49.008;8.394;2023-03-05T02:06:25;6.10;99.90
28747;DHT22;15903;49.008;8.394;2023-03-05T02:08:51;6.10;99.90
28747;DHT22;15903;49.008;8.394;2023-03-05T02:11:17;6.10;99.90
28747;DHT22;15903;49.008;8.394;2023-03-05T02:13:44;6.10;99.90
28747;DHT22;15903;49.008;8.394;2023-03-05T02:16:10;6.10;99.90
28747;DHT22;15903;49.008;8.394;2023-03-05T02:18:35;6.10;99.90
28747;DHT22;15903;49.008;8.394;2023-03-05T02:21:06;6.10;99.90
28747;DHT22;15903;49.008;8.394;2023-03-05T02:23:34;6.00;99.90
28747;DHT22;15903;49.008;8.394;2023-03-05T02:26:05;6.00;99.90
28747;DHT22;15903;49.008;8.394;2023-03-05T02:28:37;6.00;99.90
28747;DHT22;15903;49.008;8.394;2023-03-05T02:31:13;6.00;99.90
28747;DHT22;15903;49.008;8.394;2023-03-05T02:33:38;6.00;99.90
28747;DHT22;15903;49.008;8.394;2023-03-05T02:36:05;6.00;99.90
28747;DHT22;15903;49.008;8.394;2023-03-05T02:38:31;6.00;99.90
28747;DHT22;15903;49.008;8.394;2023-03-05T02:40:56;6.00;99.90
28747;DHT22;15903;49.008;8.394;2023-03-05T02:43:22;6.00;99.90
28747;DHT22;15903;49.008;8.394;2023-03-05T02:45:48;6.00;99.90
28747;DHT22;15903;49.008;8.394;2023-03-05T02:48:13;6.00;99.90
28747;DHT22;15903;49.008;8.394;2023-03-05T02:50:40;6.00;99.90
28747;DHT22;15903;49.008;8.394;2023-03-05T02:53:06;6.00;99.90
28747;DHT22;15903;49.008;8.394;2023-03-05T02:55:32;5.90;99.90
28747;DHT22;15903;49.008;8.394;2023-03-05T02:57:58;5.90;99.90
28747;DHT22;15903;49.008;8.394;2023-03-05T03:00:23;5.90;99.90
28747;DHT22;15903;49.008;8.394;2023-03-05T03:02:49;5.90;99.90
28747;DHT22;15903;49.008;8.394;2023-03-05T03:05:15;5.90;99.90
28747;DHT22;15903;49.008;8.394;2023-03-05T03:07:40;5.90;99.90
28747;DHT22;15903;49.008;8.394;2023-03-05T03:10:07;6.00;99.90
28747;DHT22;15903;49.008;8.394;2023-03-05T03:12:42;6.00;99.90
28747;DHT22;15903;49.008;8.394;2023-03-05T03:15:10;6.00;99.90
28747;DHT22;15903;49.008;8.394;2023-03-05T03:17:36;6.00;99.90
28747;DHT22;15903;49.008;8.394;2023-03-05T03:20:04;5.90;99.90
28747;DHT22;15903;49.008;8.394;2023-03-05T03:22:30;5.90;99.90
28747;DHT22;15903;49.008;8.394;2023-03-05T03:24:56;5.90;99.90
28747;DHT22;15903;49.008;8.394;2023-03-05T03:27:22;5.80;99.90
28747;DHT22;15903;49.008;8.394;2023-03-05T03:29:47;5.80;99.90
28747;DHT22;15903;49.008;8.394;2023-03-05T03:32:13;5.80;99.90
28747;DHT22;15903;49.008;8.394;2023-03-05T03:34:39;5.90;99.90
28747;DHT22;15903;49.008;8.394;2023-03-05T03:37:05;5.90;99.90
28747;DHT22;15903;49.008;8.394;2023-03-05T03:39:30;5.80;99.90
28747;DHT22;15903;49.008;8.394;2023-03-05T03:41:56;5.70;99.90
28747;DHT22;15903;49.008;8.394;2023-03-05T03:44:22;5.70;99.90
28747;DHT22;15903;49.008;8.394;2023-03-05T03:46:49;5.80;99.90
28747;DHT22;15903;49.008;8.394;2023-03-05T03:49:17;5.80;99.90
28747;DHT22;15903;49.008;8.394;2023-03-05T03:51:44;5.70;99.90
28747;DHT22;15903;49.008;8.394;2023-03-05T03:54:09;5.70;99.90
28747;DHT22;15903;49.008;8.394;2023-03-05T03:56:35;5.70;99.90
28747;DHT22;15903;49.008;8.394;2023-03-05T03:59:01;5.70;99.90
28747;DHT22;15903;49.008;8.394;2023-03-05T04:01:26;5.70;99.90
28747;DHT22;15903;49.008;8.394;2023-03-05T04:03:52;5.70;99.90
28747;DHT22;15903;49.008;8.394;2023-03-05T04:06:18;5.70;99.90
28747;DHT22;15903;49.008;8.394;2023-03-05T04:08:44;5.70;99.90
28747;DHT22;15903;49.008;8.394;2023-03-05T04:11:10;5.70;99.90
28747;DHT22;15903;49.008;8.394;2023-03-05T04:13:35;5.70;99.90
28747;DHT22;15903;49.008;8.394;2023-03-05T04:16:01;5.70;99.90
28747;DHT22;15903;49.008;8.394;2023-03-05T04:18:26;5.80;99.90
28747;DHT22;15903;49.008;8.394;2023-03-05T04:20:52;5.70;99.90
28747;DHT22;15903;49.008;8.394;2023-03-05T04:23:18;5.70;99.90
28747;DHT22;15903;49.008;8.394;2023-03-05T04:25:44;5.70;99.90
28747;DHT22;15903;49.008;8.394;2023-03-05T04:28:10;5.70;99.90
28747;DHT22;15903;49.008;8.394;2023-03-05T04:30:35;5.70;99.90
28747;DHT22;15903;49.008;8.394;2023-03-05T04:33:01;5.70;99.90
28747;DHT22;15903;49.008;8.394;2023-03-05T04:35:27;5.70;99.90
28747;DHT22;15903;49.008;8.394;2023-03-05T04:37:52;5.80;99.90
28747;DHT22;15903;49.008;8.394;2023-03-05T04:40:18;5.70;99.90
28747;DHT22;15903;49.008;8.394;2023-03-05T04:42:44;5.70;99.90
28747;DHT22;15903;49.008;8.394;2023-03-05T04:45:10;5.80;99.90
28747;DHT22;15903;49.008;8.394;2023-03-05T04:47:35;5.80;99.90
28747;DHT22;15903;49.008;8.394;2023-03-05T04:50:03;5.80;99.90
28747;DHT22;15903;49.008;8.394;2023-03-05T04:52:29;5.80;99.90
28747;DHT22;15903;49.008;8.394;2023-03-05T04:54:54;5.80;99.90
28747;DHT22;15903;49.008;8.394;2023-03-05T04:57:20;5.80;99.90
28747;DHT22;15903;49.008;8.394;2023-03-05T04:59:45;5.80;99.90
28747;DHT22;15903;49.008;8.394;2023-03-05T05:02:11;5.80;99.90
28747;DHT22;15903;49.008;8.394;2023-03-05T05:04:36;5.80;99.90
28747;DHT22;15903;49.008;8.394;2023-03-05T05:07:03;5.70;99.90
28747;DHT22;15903;49.008;8.394;2023-03-05T05:09:29;5.70;99.90
28747;DHT22;15903;49.008;8.394;2023-03-05T05:11:54;5.60;99.90
28747;DHT22;15903;49.008;8.394;2023-03-05T05:14:20;5.50;99.90
28747;DHT22;15903;49.008;8.394;2023-03-05T05:16:46;5.50;99.90
28747;DHT22;15903;49.008;8.394;2023-03-05T05:19:12;5.60;99.90
28747;DHT22;15903;49.008;8.394;2023-03-05T05:21:37;5.60;99.90
28747;DHT22;15903;49.008;8.394;2023-03-05T05:24:03;5.70;99.90
28747;DHT22;15903;49.008;8.394;2023-03-05T05:26:29;5.70;99.90
28747;DHT22;15903;49.008;8.394;2023-03-05T05:28:55;5.70;99.90
28747;DHT22;15903;49.008;8.394;2023-03-05T05:31:20;5.70;99.90
28747;DHT22;15903;49.008;8.394;2023-03-05T05:33:46;5.70;99.90
28747;DHT22;15903;49.008;8.394;2023-03-05T05:36:14;5.80;99.90
28747;DHT22;15903;49.008;8.394;2023-03-05T05:38:39;5.70;99.90
28747;DHT22;15903;49.008;8.394;2023-03-05T05:41:13;5.70;99.90
28747;DHT22;15903;49.008;8.394;2023-03-05T05:43:40;5.70;99.90
28747;DHT22;15903;49.008;8.394;2023-03-05T05:46:09;5.70;99.90
28747;DHT22;15903;49.008;8.394;2023-03-05T05:48:35;5.80;99.90
28747;DHT22;15903;49.008;8.394;2023-03-05T05:51:12;5.80;99.90
28747;DHT22;15903;49.008;8.394;2023-03-05T05:53:40;5.70;99.90
28747;DHT22;15903;49.008;8.394;2023-03-05T05:56:06;5.70;99.90
28747;DHT22;15903;49.008;8.394;2023-03-05T05:58:33;5.70;99.90
28747;DHT22;15903;49.008;8.394;2023-03-05T06:00:59;5.70;99.90
28747;DHT22;15903;49.008;8.394;2023-03-05T06:03:25;5.70;99.90
28747;DHT22;15903;49.008;8.394;2023-03-05T06:05:50;5.70;99.90
28747;DHT22;15903;49.008;8.394;2023-03-05T06:08:16;5.60;99.90
28747;DHT22;15903;49.008;8.394;2023-03-05T06:10:42;5.60;99.90
28747;DHT22;15903;49.008;8.394;2023-03-05T06:13:08;5.50;99.90
28747;DHT22;15903;49.008;8.394;2023-03-05T06:15:33;5.60;99.90
28747;DHT22;15903;49.008;8.394;2023-03-05T06:17:59;5.60;99.90
28747;DHT22;15903;49.008;8.394;2023-03-05T06:20:26;5.60;99.90
28747;DHT22;15903;49.008;8.394;2023-03-05T06:22:52;5.60;99.90
28747;DHT22;15903;49.008;8.394;2023-03-05T06:25:17;5.70;99.90
28747;DHT22;15903;49.008;8.394;2023-03-05T06:27:43;5.70;99.90
28747;DHT22;15903;49.008;8.394;2023-03-05T06:30:10;5.70;99.90
28747;DHT22;15903;49.008;8.394;2023-03-05T06:32:36;5.70;99.90
28747;DHT22;15903;49.008;8.394;2023-03-05T06:35:01;5.70;99.90
28747;DHT22;15903;49.008;8.394;2023-03-05T06:37:27;5.70;99.90
28747;DHT22;15903;49.008;8.394;2023-03-05T06:39:52;5.70;99.90
28747;DHT22;15903;49.008;8.394;2023-03-05T06:42:18;5.70;99.90
28747;DHT22;15903;49.008;8.394;2023-03-05T06:44:44;5.70;99.90
28747;DHT22;15903;49.008;8.394;2023-03-05T06:47:10;5.70;99.90
28747;DHT22;15903;49.008;8.394;2023-03-05T06:49:36;5.80;99.90
28747;DHT22;15903;49.008;8.394;2023-03-05T06:52:03;5.80;99.90
28747;DHT22;15903;49.008;8.394;2023-03-05T06:54:28;5.80;99.90
28747;DHT22;15903;49.008;8.394;2023-03-05T06:56:54;5.80;99.90
28747;DHT22;15903;49.008;8.394;2023-03-05T06:59:20;5.80;99.90
28747;DHT22;15903;49.008;8.394;2023-03-05T07:01:47;5.80;99.90
28747;DHT22;15903;49.008;8.394;2023-03-05T07:04:13;5.80;99.90
28747;DHT22;15903;49.008;8.394;2023-03-05T07:06:40;5.90;99.90
28747;DHT22;15903;49.008;8.394;2023-03-05T07:09:17;5.90;99.90
28747;DHT22;15903;49.008;8.394;2023-03-05T07:11:45;5.90;99.90
28747;DHT22;15903;49.008;8.394;2023-03-05T07:14:11;5.90;99.90
28747;DHT22;15903;49.008;8.394;2023-03-05T07:16:37;5.90;99.90
28747;DHT22;15903;49.008;8.394;2023-03-05T07:19:04;6.00;99.90
28747;DHT22;15903;49.008;8.394;2023-03-05T07:21:32;6.00;99.90
28747;DHT22;15903;49.008;8.394;2023-03-05T07:24:00;5.90;99.90
28747;DHT22;15903;49.008;8.394;2023-03-05T07:26:26;6.00;99.90
28747;DHT22;15903;49.008;8.394;2023-03-05T07:28:53;6.00;99.90
28747;DHT22;15903;49.008;8.394;2023-03-05T07:31:21;6.10;99.90
28747;DHT22;15903;49.008;8.394;2023-03-05T07:33:48;6.10;99.90
28747;DHT22;15903;49.008;8.394;2023-03-05T07:36:15;6.10;99.90
28747;DHT22;15903;49.008;8.394;2023-03-05T07:38:41;6.10;99.90
28747;DHT22;15903;49.008;8.394;2023-03-05T07:41:10;6.10;99.90
28747;DHT22;15903;49.008;8.394;2023-03-05T07:43:36;6.10;99.90
28747;DHT22;15903;49.008;8.394;2023-03-05T07:46:06;6.10;99.90
28747;DHT22;15903;49.008;8.394;2023-03-05T07:48:33;6.20;99.90
28747;DHT22;15903;49.008;8.394;2023-03-05T07:51:02;6.20;99.90
28747;DHT22;15903;49.008;8.394;2023-03-05T07:53:28;6.20;99.90
28747;DHT22;15903;49.008;8.394;2023-03-05T07:55:53;6.20;99.90
28747;DHT22;15903;49.008;8.394;2023-03-05T07:58:19;6.30;99.90
28747;DHT22;15903;49.008;8.394;2023-03-05T08:00:44;6.30;99.90
28747;DHT22;15903;49.008;8.394;2023-03-05T08:03:10;6.40;99.90
28747;DHT22;15903;49.008;8.394;2023-03-05T08:05:38;6.30;99.90
28747;DHT22;15903;49.008;8.394;2023-03-05T08:08:05;6.40;99.90
28747;DHT22;15903;49.008;8.394;2023-03-05T08:10:30;6.50;99.90
28747;DHT22;15903;49.008;8.394;2023-03-05T08:12:56;6.50;99.90
28747;DHT22;15903;49.008;8.394;2023-03-05T08:15:22;6.60;99.90
28747;DHT22;15903;49.008;8.394;2023-03-05T08:17:47;6.60;99.90
28747;DHT22;15903;49.008;8.394;2023-03-05T08:20:13;6.70;99.90
28747;DHT22;15903;49.008;8.394;2023-03-05T08:22:39;6.70;99.90
28747;DHT22;15903;49.008;8.394;2023-03-05T08:25:05;6.70;99.90
28747;DHT22;15903;49.008;8.394;2023-03-05T08:27:31;6.80;99.90
28747;DHT22;15903;49.008;8.394;2023-03-05T08:29:57;6.90;99.90
28747;DHT22;15903;49.008;8.394;2023-03-05T08:32:22;6.90;99.90
28747;DHT22;15903;49.008;8.394;2023-03-05T08:34:48;6.90;99.90
28747;DHT22;15903;49.008;8.394;2023-03-05T08:37:14;6.90;99.90
28747;DHT22;15903;49.008;8.394;2023-03-05T08:39:40;7.00;99.90
28747;DHT22;15903;49.008;8.394;2023-03-05T08:42:06;7.00;99.90
28747;DHT22;15903;49.008;8.394;2023-03-05T08:44:31;7.10;99.90
28747;DHT22;15903;49.008;8.394;2023-03-05T08:46:57;7.10;99.90
28747;DHT22;15903;49.008;8.394;2023-03-05T08:49:22;7.10;99.90
28747;DHT22;15903;49.008;8.394;2023-03-05T08:51:48;7.00;99.90
28747;DHT22;15903;49.008;8.394;2023-03-05T08:54:14;7.00;99.90
28747;DHT22;15903;49.008;8.394;2023-03-05T08:56:40;7.10;99.90
28747;DHT22;15903;49.008;8.394;2023-03-05T08:59:05;7.20;99.90
28747;DHT22;15903;49.008;8.394;2023-03-05T09:01:31;7.20;99.90
28747;DHT22;15903;49.008;8.394;2023-03-05T09:04:00;7.20;99.90
28747;DHT22;15903;49.008;8.394;2023-03-05T09:06:26;7.20;99.90
28747;DHT22;15903;49.008;8.394;2023-03-05T09:08:52;7.30;99.90
28747;DHT22;15903;49.008;8.394;2023-03-05T09:11:18;7.40;99.90
28747;DHT22;15903;49.008;8.394;2023-03-05T09:13:44;7.30;99.90
28747;DHT22;15903;49.008;8.394;2023-03-05T09:16:12;7.30;99.90
28747;DHT22;15903;49.008;8.394;2023-03-05T09:18:39;7.40;99.90
28747;DHT22;15903;49.008;8.394;2023-03-05T09:21:07;7.40;99.90
28747;DHT22;15903;49.008;8.394;2023-03-05T09:23:33;7.50;99.90
28747;DHT22;15903;49.008;8.394;2023-03-05T09:25:59;7.50;99.90
28747;DHT22;15903;49.008;8.394;2023-03-05T09:28:24;7.50;99.90
28747;DHT22;15903;49.008;8.394;2023-03-05T09:30:50;7.50;99.90
28747;DHT22;15903;49.008;8.394;2023-03-05T09:33:15;7.40;99.90
28747;DHT22;15903;49.008;8.394;2023-03-05T09:35:41;7.40;99.90
28747;DHT22;15903;49.008;8.394;2023-03-05T09:38:07;7.40;99.90
28747;DHT22;15903;49.008;8.394;2023-03-05T09:43:26;7.50;99.90
28747;DHT22;15903;49.008;8.394;2023-03-05T09:46:13;7.50;99.90
28747;DHT22;15903;49.008;8.394;2023-03-05T09:48:58;7.50;99.90
28747;DHT22;15903;49.008;8.394;2023-03-05T09:51:28;7.50;99.90
28747;DHT22;15903;49.008;8.394;2023-03-05T09:53:57;7.60;99.90
28747;DHT22;15903;49.008;8.394;2023-03-05T09:56:31;7.60;99.90
28747;DHT22;15903;49.008;8.394;2023-03-05T09:59:45;7.70;99.90
28747;DHT22;15903;49.008;8.394;2023-03-05T10:01:52;7.70;99.90
28747;DHT22;15903;49.008;8.394;2023-03-05T10:04:22;7.70;99.90
28747;DHT22;15903;49.008;8.394;2023-03-05T10:09:29;7.80;99.90
28747;DHT22;15903;49.008;8.394;2023-03-05T10:12:12;7.70;99.90
28747;DHT22;15903;49.008;8.394;2023-03-05T10:14:40;7.60;99.90
28747;DHT22;15903;49.008;8.394;2023-03-05T10:25:29;7.60;99.90
28747;DHT22;15903;49.008;8.394;2023-03-05T10:28:09;7.60;99.90
28747;DHT22;15903;49.008;8.394;2023-03-05T10:36:19;7.40;99.90
28747;DHT22;15903;49.008;8.394;2023-03-05T10:39:15;7.40;99.90
28747;DHT22;15903;49.008;8.394;2023-03-05T10:42:01;7.40;99.90
28747;DHT22;15903;49.008;8.394;2023-03-05T10:45:16;7.40;99.90
28747;DHT22;15903;49.008;8.394;2023-03-05T10:50:28;7.40;99.90
28747;DHT22;15903;49.008;8.394;2023-03-05T10:53:03;7.50;99.90
28747;DHT22;15903;49.008;8.394;2023-03-05T10:55:31;7.50;99.90
28747;DHT22;15903;49.008;8.394;2023-03-05T10:57:57;7.60;99.90
28747;DHT22;15903;49.008;8.394;2023-03-05T11:00:25;7.60;99.90
28747;DHT22;15903;49.008;8.394;2023-03-05T11:03:04;7.60;99.90
28747;DHT22;15903;49.008;8.394;2023-03-05T11:05:38;7.60;99.90
28747;DHT22;15903;49.008;8.394;2023-03-05T11:11:12;7.60;99.90
28747;DHT22;15903;49.008;8.394;2023-03-05T11:14:10;7.70;99.90
28747;DHT22;15903;49.008;8.394;2023-03-05T11:16:46;7.70;99.90
28747;DHT22;15903;49.008;8.394;2023-03-05T11:19:28;7.80;99.90
28747;DHT22;15903;49.008;8.394;2023-03-05T11:22:21;7.80;99.90
28747;DHT22;15903;49.008;8.394;2023-03-05T11:25:13;7.90;99.90
28747;DHT22;15903;49.008;8.394;2023-03-05T11:27:49;7.90;99.90
28747;DHT22;15903;49.008;8.394;2023-03-05T11:30:28;7.80;99.90
28747;DHT22;15903;49.008;8.394;2023-03-05T11:33:14;7.80;99.90
28747;DHT22;15903;49.008;8.394;2023-03-05T11:35:42;7.70;99.90
28747;DHT22;15903;49.008;8.394;2023-03-05T11:40:45;7.70;99.90
28747;DHT22;15903;49.008;8.394;2023-03-05T11:43:19;7.70;99.90
28747;DHT22;15903;49.008;8.394;2023-03-05T11:45:50;7.70;99.90
28747;DHT22;15903;49.008;8.394;2023-03-05T11:48:24;7.70;99.90
28747;DHT22;15903;49.008;8.394;2023-03-05T11:51:01;7.80;99.90
28747;DHT22;15903;49.008;8.394;2023-03-05T11:53:30;7.70;99.90
28747;DHT22;15903;49.008;8.394;2023-03-05T11:58:45;7.60;99.90
28747;DHT22;15903;49.008;8.394;2023-03-05T12:01:21;7.70;99.90
28747;DHT22;15903;49.008;8.394;2023-03-05T12:03:48;7.70;99.90
28747;DHT22;15903;49.008;8.394;2023-03-05T12:09:01;7.90;99.90
28747;DHT22;15903;49.008;8.394;2023-03-05T12:11:29;7.80;99.90
28747;DHT22;15903;49.008;8.394;2023-03-05T12:14:32;7.80;99.90
28747;DHT22;15903;49.008;8.394;2023-03-05T12:19:37;8.00;99.90
28747;DHT22;15903;49.008;8.394;2023-03-05T12:22:16;8.00;99.90
28747;DHT22;15903;49.008;8.394;2023-03-05T12:24:43;8.00;99.90
28747;DHT22;15903;49.008;8.394;2023-03-05T12:27:11;7.90;99.90
28747;DHT22;15903;49.008;8.394;2023-03-05T12:29:52;7.80;99.90
28747;DHT22;15903;49.008;8.394;2023-03-05T12:42:41;8.10;99.90
28747;DHT22;15903;49.008;8.394;2023-03-05T12:47:41;8.10;99.90
28747;DHT22;15903;49.008;8.394;2023-03-05T12:53:11;8.20;99.90
28747;DHT22;15903;49.008;8.394;2023-03-05T13:01:06;7.90;99.90
28747;DHT22;15903;49.008;8.394;2023-03-05T13:03:53;8.00;99.90
28747;DHT22;15903;49.008;8.394;2023-03-05T13:09:02;8.10;99.90
28747;DHT22;15903;49.008;8.394;2023-03-05T13:11:31;8.10;99.90
28747;DHT22;15903;49.008;8.394;2023-03-05T13:13:59;8.20;99.90
28747;DHT22;15903;49.008;8.394;2023-03-05T13:16:29;8.20;99.90
28747;DHT22;15903;49.008;8.394;2023-03-05T13:18:58;8.20;99.90
28747;DHT22;15903;49.008;8.394;2023-03-05T13:21:30;8.00;99.90
28747;DHT22;15903;49.008;8.394;2023-03-05T13:23:58;8.00;99.90
28747;DHT22;15903;49.008;8.394;2023-03-05T13:26:36;8.00;99.90
28747;DHT22;15903;49.008;8.394;2023-03-05T13:29:48;8.10;99.90
28747;DHT22;15903;49.008;8.394;2023-03-05T13:32:24;8.10;99.90
28747;DHT22;15903;49.008;8.394;2023-03-05T13:34:56;8.10;99.90
28747;DHT22;15903;49.008;8.394;2023-03-05T13:37:27;8.10;99.90
28747;DHT22;15903;49.008;8.394;2023-03-05T13:39:57;8.00;99.90
28747;DHT22;15903;49.008;8.394;2023-03-05T13:42:28;8.00;99.90
28747;DHT22;15903;49.008;8.394;2023-03-05T13:44:57;8.10;99.90
28747;DHT22;15903;49.008;8.394;2023-03-05T13:47:26;8.10;99.90
28747;DHT22;15903;49.008;8.394;2023-03-05T13:49:57;8.10;99.90
28747;DHT22;15903;49.008;8.394;2023-03-05T13:52:30;8.10;99.90
28747;DHT22;15903;49.008;8.394;2023-03-05T13:54:57;8.10;99.90
28747;DHT22;15903;49.008;8.394;2023-03-05T13:59:57;8.00;99.90
28747;DHT22;15903;49.008;8.394;2023-03-05T14:02:25;7.90;99.90
28747;DHT22;15903;49.008;8.394;2023-03-05T14:04:51;8.00;99.90
28747;DHT22;15903;49.008;8.394;2023-03-05T14:07:32;8.00;99.80
28747;DHT22;15903;49.008;8.394;2023-03-05T14:10:02;8.00;98.30
28747;DHT22;15903;49.008;8.394;2023-03-05T14:12:37;7.90;98.40
28747;DHT22;15903;49.008;8.394;2023-03-05T14:15:27;7.90;97.90
28747;DHT22;15903;49.008;8.394;2023-03-05T14:20:33;7.90;98.00
28747;DHT22;15903;49.008;8.394;2023-03-05T14:23:00;8.00;98.80
28747;DHT22;15903;49.008;8.394;2023-03-05T14:28:00;8.00;97.70
28747;DHT22;15903;49.008;8.394;2023-03-05T14:30:26;7.90;97.50
28747;DHT22;15903;49.008;8.394;2023-03-05T14:32:54;7.80;97.80
28747;DHT22;15903;49.008;8.394;2023-03-05T14:35:24;7.80;98.30
28747;DHT22;15903;49.008;8.394;2023-03-05T14:37:52;7.80;98.20
28747;DHT22;15903;49.008;8.394;2023-03-05T14:40:22;7.90;98.10
28747;DHT22;15903;49.008;8.394;2023-03-05T14:43:05;7.90;98.30
28747;DHT22;15903;49.008;8.394;2023-03-05T14:45:33;7.90;98.70
28747;DHT22;15903;49.008;8.394;2023-03-05T14:48:00;8.00;98.70
28747;DHT22;15903;49.008;8.394;2023-03-05T14:50:38;8.00;98.60
28747;DHT22;15903;49.008;8.394;2023-03-05T14:53:29;8.10;98.00
28747;DHT22;15903;49.008;8.394;2023-03-05T14:55:58;8.10;97.70
28747;DHT22;15903;49.008;8.394;2023-03-05T14:58:27;8.10;97.60
28747;DHT22;15903;49.008;8.394;2023-03-05T15:00:54;8.00;97.80
28747;DHT22;15903;49.008;8.394;2023-03-05T15:03:20;8.00;98.10
28747;DHT22;15903;49.008;8.394;2023-03-05T15:05:51;8.00;97.90
28747;DHT22;15903;49.008;8.394;2023-03-05T15:08:21;8.00;97.90
28747;DHT22;15903;49.008;8.394;2023-03-05T15:10:47;8.00;98.10
28747;DHT22;15903;49.008;8.394;2023-03-05T15:13:14;8.00;98.50
28747;DHT22;15903;49.008;8.394;2023-03-05T15:15:41;8.10;98.40
28747;DHT22;15903;49.008;8.394;2023-03-05T15:18:11;8.10;98.10
28747;DHT22;15903;49.008;8.394;2023-03-05T15:20:37;8.00;97.50
28747;DHT22;15903;49.008;8.394;2023-03-05T15:23:04;8.10;97.80
28747;DHT22;15903;49.008;8.394;2023-03-05T15:25:30;8.00;97.80
28747;DHT22;15903;49.008;8.394;2023-03-05T15:27:55;8.00;97.70
28747;DHT22;15903;49.008;8.394;2023-03-05T15:30:30;8.00;97.90
28747;DHT22;15903;49.008;8.394;2023-03-05T15:32:58;8.00;97.40
28747;DHT22;15903;49.008;8.394;2023-03-05T15:35:25;7.90;97.40
28747;DHT22;15903;49.008;8.394;2023-03-05T15:37:51;8.00;97.60
28747;DHT22;15903;49.008;8.394;2023-03-05T15:40:19;8.00;97.40
28747;DHT22;15903;49.008;8.394;2023-03-05T15:42:46;8.00;97.50
28747;DHT22;15903;49.008;8.394;2023-03-05T15:45:12;7.90;97.50
28747;DHT22;15903;49.008;8.394;2023-03-05T15:47:37;7.90;97.50
28747;DHT22;15903;49.008;8.394;2023-03-05T15:50:04;7.90;97.50
28747;DHT22;15903;49.008;8.394;2023-03-05T15:52:29;8.00;97.60
28747;DHT22;15903;49.008;8.394;2023-03-05T15:54:55;7.90;97.70
28747;DHT22;15903;49.008;8.394;2023-03-05T15:57:20;8.00;97.80
28747;DHT22;15903;49.008;8.394;2023-03-05T15:59:49;7.90;97.70
28747;DHT22;15903;49.008;8.394;2023-03-05T16:02:15;7.90;97.90
28747;DHT22;15903;49.008;8.394;2023-03-05T16:04:40;8.00;97.90
28747;DHT22;15903;49.008;8.394;2023-03-05T16:07:06;7.80;97.80
28747;DHT22;15903;49.008;8.394;2023-03-05T16:09:38;7.80;98.00
28747;DHT22;15903;49.008;8.394;2023-03-05T16:12:09;7.80;97.90
28747;DHT22;15903;49.008;8.394;2023-03-05T16:14:38;7.80;98.10
28747;DHT22;15903;49.008;8.394;2023-03-05T16:17:04;7.90;98.20
28747;DHT22;15903;49.008;8.394;2023-03-05T16:19:31;7.90;98.20
28747;DHT22;15903;49.008;8.394;2023-03-05T16:21:59;7.90;98.20
28747;DHT22;15903;49.008;8.394;2023-03-05T16:24:24;7.90;98.20
28747;DHT22;15903;49.008;8.394;2023-03-05T16:26:50;7.90;98.30
28747;DHT22;15903;49.008;8.394;2023-03-05T16:29:16;7.90;98.20
28747;DHT22;15903;49.008;8.394;2023-03-05T16:31:42;7.80;98.40
28747;DHT22;15903;49.008;8.394;2023-03-05T16:34:10;7.90;98.50
28747;DHT22;15903;49.008;8.394;2023-03-05T16:36:39;7.90;98.60
28747;DHT22;15903;49.008;8.394;2023-03-05T16:39:06;7.80;98.50
28747;DHT22;15903;49.008;8.394;2023-03-05T16:41:32;7.80;98.80
28747;DHT22;15903;49.008;8.394;2023-03-05T16:43:58;7.90;98.70
28747;DHT22;15903;49.008;8.394;2023-03-05T16:46:28;7.80;98.80
28747;DHT22;15903;49.008;8.394;2023-03-05T16:48:54;7.80;99.10
28747;DHT22;15903;49.008;8.394;2023-03-05T16:51:20;7.80;99.30
28747;DHT22;15903;49.008;8.394;2023-03-05T16:53:46;7.80;99.10
28747;DHT22;15903;49.008;8.394;2023-03-05T16:56:12;7.70;99.00
28747;DHT22;15903;49.008;8.394;2023-03-05T16:58:39;7.80;98.90
28747;DHT22;15903;49.008;8.394;2023-03-05T17:01:14;7.80;99.40